sensor_id;sensor_type;location;lat;lon;timestamp;temperature;humidity
18876;DHT22;9570;50.854;13.778;2024-01-15T00:01:59;1.40;99.90
18876;DHT22;9570;50.854;13.778;2024-01-15T00:04:25;1.40;99.90
18876;DHT22;9570;50.854;13.778;2024-01-15T00:06:50;1.40;99.90
18876;DHT22;9570;50.854;13.778;2024-01-15T00:09:16;1.50;99.90
18876;DHT22;9570;50.854;13.778;2024-01-15T00:11:42;1.60;99.90
18876;DHT22;9570;50.854;13.778;2024-01-15T00:14:08;1.50;99.90
18876;DHT22;9570;50.854;13.778;2024-01-15T00:16:34;1.50;99.90
18876;DHT22;9570;50.854;13.778;2024-01-15T00:18:59;1.60;99.90
18876;DHT22;9570;50.854;13.778;2024-01-15T00:21:25;1.50;99.90
18876;DHT22;9570;50.854;13.778;2024-01-15T00:23:50;1.40;99.90
18876;DHT22;9570;50.854;13.778;2024-01-15T00:26:16;1.50;99.90
18876;DHT22;9570;50.854;13.778;2024-01-15T00:28:41;1.50;99.90
18876;DHT22;9570;50.854;13.778;2024-01-15T00:31:08;1.50;99.90
18876;DHT22;9570;50.854;13.778;2024-01-15T00:33:33;1.30;99.90
18876;DHT22;9570;50.854;13.778;2024-01-15T00:35:59;1.30;99.90
18876;DHT22;9570;50.854;13.778;2024-01-15T00:38:24;1.20;99.90
18876;DHT22;9570;50.854;13.778;2024-01-15T00:40:50;1.30;99.90
18876;DHT22;9570;50.854;13.778;2024-01-15T00:43:15;1.20;99.90
18876;DHT22;9570;50.854;13.778;2024-01-15T00:45:43;1.20;99.90
18876;DHT22;9570;50.854;13.778;2024-01-15T00:48:08;1.30;99.90
18876;DHT22;9570;50.854;13.778;2024-01-15T00:50:34;1.30;99.90
18876;DHT22;9570;50.854;13.778;2024-01-15T00:52:59;1.30;99.90
18876;DHT22;9570;50.854;13.778;2024-01-15T00:55:25;1.30;99.90
18876;DHT22;9570;50.854;13.778;2024-01-15T00:57:50;1.40;99.90
18876;DHT22;9570;50.854;13.778;2024-01-15T01:00:16;1.30;99.90
18876;DHT22;9570;50.854;13.778;2024-01-15T01:02:42;1.40;99.90
18876;DHT22;9570;50.854;13.778;2024-01-15T01:05:07;1.20;99.90
18876;DHT22;9570;50.854;13.778;2024-01-15T01:07:33;1.30;99.90
18876;DHT22;9570;50.854;13.778;2024-01-15T01:09:58;1.20;99.90
18876;DHT22;9570;50.854;13.778;2024-01-15T01:12:23;1.40;99.90
18876;DHT22;9570;50.854;13.778;2024-01-15T01:14:49;1.20;99.90
18876;DHT22;9570;50.854;13.778;2024-01-15T01:17:14;1.20;99.90
18876;DHT22;9570;50.854;13.778;2024-01-15T01:19:40;0.80;99.90
18876;DHT22;9570;50.854;13.778;2024-01-15T01:22:05;1.00;99.90
18876;DHT22;9570;50.854;13.778;2024-01-15T01:24:31;1.00;99.90
18876;DHT22;9570;50.854;13.778;2024-01-15T01:26:56;1.10;99.90
18876;DHT22;9570;50.854;13.778;2024-01-15T01:29:22;1.20;99.90
18876;DHT22;9570;50.854;13.778;2024-01-15T01:31:48;1.20;99.90
18876;DHT22;9570;50.854;13.778;2024-01-15T01:34:14;1.10;99.90
18876;DHT22;9570;50.854;13.778;2024-01-15T01:36:40;1.00;99.90
18876;DHT22;9570;50.854;13.778;2024-01-15T01:39:06;1.00;99.90
18876;DHT22;9570;50.854;13.778;2024-01-15T01:41:31;1.20;99.90
18876;DHT22;9570;50.854;13.778;2024-01-15T01:43:57;1.10;99.90
18876;DHT22;9570;50.854;13.778;2024-01-15T01:46:23;0.90;99.90
18876;DHT22;9570;50.854;13.778;2024-01-15T01:48:49;0.90;99.90
18876;DHT22;9570;50.854;13.778;2024-01-15T01:51:15;0.90;99.90
18876;DHT22;9570;50.854;13.778;2024-01-15T01:53:41;1.00;99.90
18876;DHT22;9570;50.854;13.778;2024-01-15T01:56:07;0.80;99.90
18876;DHT22;9570;50.854;13.778;2024-01-15T01:58:33;0.80;99.90
18876;DHT22;9570;50.854;13.778;2024-01-15T02:00:59;0.70;99.90
18876;DHT22;9570;50.854;13.778;2024-01-15T02:03:26;0.70;99.90
18876;DHT22;9570;50.854;13.778;2024-01-15T02:05:52;0.90;99.90
18876;DHT22;9570;50.854;13.778;2024-01-15T02:08:18;0.90;99.90
18876;DHT22;9570;50.854;13.778;2024-01-15T02:10:44;0.90;99.90
18876;DHT22;9570;50.854;13.778;2024-01-15T02:13:10;0.80;99.90
18876;DHT22;9570;50.854;13.778;2024-01-15T02:15:35;0.90;99.90
18876;DHT22;9570;50.854;13.778;2024-01-15T02:18:06;0.90;99.90
18876;DHT22;9570;50.854;13.778;2024-01-15T02:20:33;1.00;99.90
18876;DHT22;9570;50.854;13.778;2024-01-15T02:23:15;0.90;99.90
18876;DHT22;9570;50.854;13.778;2024-01-15T02:25:42;1.00;99.90
18876;DHT22;9570;50.854;13.778;2024-01-15T02:28:11;0.90;99.90
18876;DHT22;9570;50.854;13.778;2024-01-15T02:30:37;0.90;99.90
18876;DHT22;9570;50.854;13.778;2024-01-15T02:33:04;0.90;99.90
18876;DHT22;9570;50.854;13.778;2024-01-15T02:35:30;0.80;99.90
18876;DHT22;9570;50.854;13.778;2024-01-15T02:37:55;0.80;99.90
18876;DHT22;9570;50.854;13.778;2024-01-15T02:40:21;0.80;99.90
18876;DHT22;9570;50.854;13.778;2024-01-15T02:42:46;0.90;99.90
18876;DHT22;9570;50.854;13.778;2024-01-15T02:45:12;0.80;99.90
18876;DHT22;9570;50.854;13.778;2024-01-15T02:47:37;0.80;99.90
18876;DHT22;9570;50.854;13.778;2024-01-15T02:50:03;0.80;99.90
18876;DHT22;9570;50.854;13.778;2024-01-15T02:52:29;0.80;99.90
18876;DHT22;9570;50.854;13.778;2024-01-15T02:54:54;0.80;99.90
18876;DHT22;9570;50.854;13.778;2024-01-15T02:57:20;0.90;99.90
18876;DHT22;9570;50.854;13.778;2024-01-15T02:59:45;0.90;99.90
18876;DHT22;9570;50.854;13.778;2024-01-15T03:02:10;0.70;99.90
18876;DHT22;9570;50.854;13.778;2024-01-15T03:04:36;0.70;99.90
18876;DHT22;9570;50.854;13.778;2024-01-15T03:07:01;0.70;99.90
18876;DHT22;9570;50.854;13.778;2024-01-15T03:09:27;0.80;99.90
18876;DHT22;9570;50.854;13.778;2024-01-15T03:11:52;1.00;99.90
18876;DHT22;9570;50.854;13.778;2024-01-15T03:14:18;0.70;99.90
18876;DHT22;9570;50.854;13.778;2024-01-15T03:16:43;0.60;99.90
18876;DHT22;9570;50.854;13.778;2024-01-15T03:19:09;0.80;99.90
18876;DHT22;9570;50.854;13.778;2024-01-15T03:21:34;0.80;99.90
18876;DHT22;9570;50.854;13.778;2024-01-15T03:24:00;0.70;99.90
18876;DHT22;9570;50.854;13.778;2024-01-15T03:26:25;0.70;99.90
18876;DHT22;9570;50.854;13.778;2024-01-15T03:28:51;0.60;99.90
18876;DHT22;9570;50.854;13.778;2024-01-15T03:31:17;0.60;99.90
18876;DHT22;9570;50.854;13.778;2024-01-15T03:33:42;0.70;99.90
18876;DHT22;9570;50.854;13.778;2024-01-15T03:36:08;0.70;99.90
18876;DHT22;9570;50.854;13.778;2024-01-15T03:38:34;0.60;99.90
18876;DHT22;9570;50.854;13.778;2024-01-15T03:40:59;0.70;99.90
18876;DHT22;9570;50.854;13.778;2024-01-15T03:43:26;0.70;99.90
18876;DHT22;9570;50.854;13.778;2024-01-15T03:45:52;0.50;99.90
18876;DHT22;9570;50.854;13.778;2024-01-15T03:48:17;0.60;99.90
18876;DHT22;9570;50.854;13.778;2024-01-15T03:50:43;0.60;99.90
18876;DHT22;9570;50.854;13.778;2024-01-15T03:53:08;0.50;99.90
18876;DHT22;9570;50.854;13.778;2024-01-15T03:55:33;0.50;99.90
18876;DHT22;9570;50.854;13.778;2024-01-15T03:57:59;0.50;99.90
18876;DHT22;9570;50.854;13.778;2024-01-15T04:00:24;0.50;99.90
18876;DHT22;9570;50.854;13.778;2024-01-15T04:02:50;0.60;99.90
18876;DHT22;9570;50.854;13.778;2024-01-15T04:05:15;0.50;99.90
18876;DHT22;9570;50.854;13.778;2024-01-15T04:07:41;0.30;99.90
18876;DHT22;9570;50.854;13.778;2024-01-15T04:10:07;0.30;99.90
18876;DHT22;9570;50.854;13.778;2024-01-15T04:12:32;0.40;99.90
18876;DHT22;9570;50.854;13.778;2024-01-15T04:14:58;0.40;99.90
18876;DHT22;9570;50.854;13.778;2024-01-15T04:17:23;0.30;99.90
18876;DHT22;9570;50.854;13.778;2024-01-15T04:19:49;0.40;99.90
18876;DHT22;9570;50.854;13.778;2024-01-15T04:22:14;0.20;99.90
18876;DHT22;9570;50.854;13.778;2024-01-15T04:24:40;0.40;99.90
18876;DHT22;9570;50.854;13.778;2024-01-15T04:27:06;0.50;99.90
18876;DHT22;9570;50.854;13.778;2024-01-15T04:29:32;0.40;99.90
18876;DHT22;9570;50.854;13.778;2024-01-15T04:31:57;0.40;99.90
18876;DHT22;9570;50.854;13.778;2024-01-15T04:34:23;0.30;99.90
18876;DHT22;9570;50.854;13.778;2024-01-15T04:36:48;0.40;99.90
18876;DHT22;9570;50.854;13.778;2024-01-15T04:39:13;0.30;99.90
18876;DHT22;9570;50.854;13.778;2024-01-15T04:41:39;0.20;99.90
18876;DHT22;9570;50.854;13.778;2024-01-15T04:44:04;0.40;99.90
18876;DHT22;9570;50.854;13.778;2024-01-15T04:46:30;0.10;99.90
18876;DHT22;9570;50.854;13.778;2024-01-15T04:48:55;0.30;99.90
18876;DHT22;9570;50.854;13.778;2024-01-15T04:51:21;0.10;99.90
18876;DHT22;9570;50.854;13.778;2024-01-15T04:53:46;0.20;99.90
18876;DHT22;9570;50.854;13.778;2024-01-15T04:56:12;0.10;99.90
18876;DHT22;9570;50.854;13.778;2024-01-15T04:58:37;0.20;99.90
18876;DHT22;9570;50.854;13.778;2024-01-15T05:01:03;0.20;99.90
18876;DHT22;9570;50.854;13.778;2024-01-15T05:03:29;0.10;99.90
18876;DHT22;9570;50.854;13.778;2024-01-15T05:05:55;0.00;99.90
18876;DHT22;9570;50.854;13.778;2024-01-15T05:08:20;0.00;99.90
18876;DHT22;9570;50.854;13.778;2024-01-15T05:10:47;0.10;99.90
18876;DHT22;9570;50.854;13.778;2024-01-15T05:13:13;-0.10;99.90
18876;DHT22;9570;50.854;13.778;2024-01-15T05:15:38;0.00;99.90
18876;DHT22;9570;50.854;13.778;2024-01-15T05:18:04;0.10;99.90
18876;DHT22;9570;50.854;13.778;2024-01-15T05:20:29;0.00;99.90
18876;DHT22;9570;50.854;13.778;2024-01-15T05:22:55;0.00;99.90
18876;DHT22;9570;50.854;13.778;2024-01-15T05:25:20;-0.10;99.90
18876;DHT22;9570;50.854;13.778;2024-01-15T05:27:46;0.00;99.90
18876;DHT22;9570;50.854;13.778;2024-01-15T05:30:11;0.00;99.90
18876;DHT22;9570;50.854;13.778;2024-01-15T05:32:37;-0.10;99.90
18876;DHT22;9570;50.854;13.778;2024-01-15T05:35:03;-0.10;99.90
18876;DHT22;9570;50.854;13.778;2024-01-15T05:37:28;-0.10;99.90
18876;DHT22;9570;50.854;13.778;2024-01-15T05:39:54;0.00;99.90
18876;DHT22;9570;50.854;13.778;2024-01-15T05:42:19;-0.10;99.90
18876;DHT22;9570;50.854;13.778;2024-01-15T05:44:44;-0.20;99.90
18876;DHT22;9570;50.854;13.778;2024-01-15T05:47:10;-0.10;99.90
18876;DHT22;9570;50.854;13.778;2024-01-15T05:49:35;-0.20;99.90
18876;DHT22;9570;50.854;13.778;2024-01-15T05:52:01;-0.10;99.90
18876;DHT22;9570;50.854;13.778;2024-01-15T05:54:27;-0.20;99.90
18876;DHT22;9570;50.854;13.778;2024-01-15T05:56:52;-0.20;99.90
18876;DHT22;9570;50.854;13.778;2024-01-15T05:59:17;-0.20;99.90
18876;DHT22;9570;50.854;13.778;2024-01-15T06:01:43;-0.30;99.90
18876;DHT22;9570;50.854;13.778;2024-01-15T06:04:08;-0.20;99.90
18876;DHT22;9570;50.854;13.778;2024-01-15T06:06:34;-0.40;99.90
18876;DHT22;9570;50.854;13.778;2024-01-15T06:08:59;-0.20;99.90
18876;DHT22;9570;50.854;13.778;2024-01-15T06:11:33;-0.20;99.90
18876;DHT22;9570;50.854;13.778;2024-01-15T06:13:59;-0.30;99.90
18876;DHT22;9570;50.854;13.778;2024-01-15T06:16:28;-0.20;99.90
18876;DHT22;9570;50.854;13.778;2024-01-15T06:18:53;-0.30;99.90
18876;DHT22;9570;50.854;13.778;2024-01-15T06:21:19;-0.40;99.90
18876;DHT22;9570;50.854;13.778;2024-01-15T06:23:45;-0.40;99.90
18876;DHT22;9570;50.854;13.778;2024-01-15T06:26:13;-0.30;99.90
18876;DHT22;9570;50.854;13.778;2024-01-15T06:28:39;-0.30;99.90
18876;DHT22;9570;50.854;13.778;2024-01-15T06:31:06;-0.30;99.90
18876;DHT22;9570;50.854;13.778;2024-01-15T06:33:32;-0.30;99.90
18876;DHT22;9570;50.854;13.778;2024-01-15T06:35:57;-0.50;99.90
18876;DHT22;9570;50.854;13.778;2024-01-15T06:38:23;-0.50;99.90
18876;DHT22;9570;50.854;13.778;2024-01-15T06:40:48;-0.50;99.90
18876;DHT22;9570;50.854;13.778;2024-01-15T06:43:14;-0.30;99.90
18876;DHT22;9570;50.854;13.778;2024-01-15T06:45:41;-0.40;99.90
18876;DHT22;9570;50.854;13.778;2024-01-15T06:48:06;-0.40;99.90
18876;DHT22;9570;50.854;13.778;2024-01-15T06:50:33;-0.30;99.90
18876;DHT22;9570;50.854;13.778;2024-01-15T06:52:58;-0.50;99.90
18876;DHT22;9570;50.854;13.778;2024-01-15T06:55:24;-0.50;99.90
18876;DHT22;9570;50.854;13.778;2024-01-15T06:57:49;-0.20;99.90
18876;DHT22;9570;50.854;13.778;2024-01-15T07:00:15;-0.20;99.90
18876;DHT22;9570;50.854;13.778;2024-01-15T07:02:41;-0.30;99.90
18876;DHT22;9570;50.854;13.778;2024-01-15T07:05:07;-0.10;99.90
18876;DHT22;9570;50.854;13.778;2024-01-15T07:07:32;0.00;99.90
18876;DHT22;9570;50.854;13.778;2024-01-15T07:09:58;-0.20;99.90
18876;DHT22;9570;50.854;13.778;2024-01-15T07:12:23;-0.30;99.90
18876;DHT22;9570;50.854;13.778;2024-01-15T07:14:49;-0.30;99.90
18876;DHT22;9570;50.854;13.778;2024-01-15T07:17:15;-0.40;99.90
18876;DHT22;9570;50.854;13.778;2024-01-15T07:19:40;-0.30;99.90
18876;DHT22;9570;50.854;13.778;2024-01-15T07:22:06;-0.10;99.90
18876;DHT22;9570;50.854;13.778;2024-01-15T07:24:32;-0.10;99.90
18876;DHT22;9570;50.854;13.778;2024-01-15T07:26:59;-0.30;99.90
18876;DHT22;9570;50.854;13.778;2024-01-15T07:29:25;-0.20;99.90
18876;DHT22;9570;50.854;13.778;2024-01-15T07:31:51;-0.20;99.90
18876;DHT22;9570;50.854;13.778;2024-01-15T07:34:17;-0.30;99.90
18876;DHT22;9570;50.854;13.778;2024-01-15T07:36:46;-0.30;99.90
18876;DHT22;9570;50.854;13.778;2024-01-15T07:39:11;-0.20;99.90
18876;DHT22;9570;50.854;13.778;2024-01-15T07:41:37;-0.20;99.90
18876;DHT22;9570;50.854;13.778;2024-01-15T07:44:03;-0.20;99.90
18876;DHT22;9570;50.854;13.778;2024-01-15T07:46:28;-0.20;99.90
18876;DHT22;9570;50.854;13.778;2024-01-15T07:48:54;0.00;99.90
18876;DHT22;9570;50.854;13.778;2024-01-15T07:51:23;0.00;99.90
18876;DHT22;9570;50.854;13.778;2024-01-15T07:53:49;0.10;99.90
18876;DHT22;9570;50.854;13.778;2024-01-15T07:56:14;0.10;99.90
18876;DHT22;9570;50.854;13.778;2024-01-15T07:58:39;0.10;99.90
18876;DHT22;9570;50.854;13.778;2024-01-15T08:01:05;0.00;99.90
18876;DHT22;9570;50.854;13.778;2024-01-15T08:03:31;0.00;99.90
18876;DHT22;9570;50.854;13.778;2024-01-15T08:05:57;0.10;99.90
18876;DHT22;9570;50.854;13.778;2024-01-15T08:08:24;0.00;99.90
18876;DHT22;9570;50.854;13.778;2024-01-15T08:10:52;0.20;99.90
18876;DHT22;9570;50.854;13.778;2024-01-15T08:13:18;0.20;99.90
18876;DHT22;9570;50.854;13.778;2024-01-15T08:15:44;0.10;99.90
18876;DHT22;9570;50.854;13.778;2024-01-15T08:18:09;0.00;99.90
18876;DHT22;9570;50.854;13.778;2024-01-15T08:20:35;0.10;99.90
18876;DHT22;9570;50.854;13.778;2024-01-15T08:23:00;0.20;99.90
18876;DHT22;9570;50.854;13.778;2024-01-15T08:25:26;0.20;99.90
18876;DHT22;9570;50.854;13.778;2024-01-15T08:27:52;0.10;99.90
18876;DHT22;9570;50.854;13.778;2024-01-15T08:30:17;0.20;99.90
18876;DHT22;9570;50.854;13.778;2024-01-15T08:32:44;0.30;99.90
18876;DHT22;9570;50.854;13.778;2024-01-15T08:35:10;0.20;99.90
18876;DHT22;9570;50.854;13.778;2024-01-15T08:37:36;0.10;99.90
18876;DHT22;9570;50.854;13.778;2024-01-15T08:40:02;0.10;99.90
18876;DHT22;9570;50.854;13.778;2024-01-15T08:42:28;0.20;99.90
18876;DHT22;9570;50.854;13.778;2024-01-15T08:44:54;0.30;99.90
18876;DHT22;9570;50.854;13.778;2024-01-15T08:47:19;0.20;99.90
18876;DHT22;9570;50.854;13.778;2024-01-15T08:49:45;0.40;99.90
18876;DHT22;9570;50.854;13.778;2024-01-15T08:52:11;0.50;99.90
18876;DHT22;9570;50.854;13.778;2024-01-15T08:54:37;0.50;99.90
18876;DHT22;9570;50.854;13.778;2024-01-15T08:57:03;0.60;99.90
18876;DHT22;9570;50.854;13.778;2024-01-15T08:59:28;0.60;99.90
18876;DHT22;9570;50.854;13.778;2024-01-15T09:01:54;0.70;99.90
18876;DHT22;9570;50.854;13.778;2024-01-15T09:04:22;0.80;99.90
18876;DHT22;9570;50.854;13.778;2024-01-15T09:06:48;0.80;99.90
18876;DHT22;9570;50.854;13.778;2024-01-15T09:09:13;1.00;99.90
18876;DHT22;9570;50.854;13.778;2024-01-15T09:11:40;0.90;99.90
18876;DHT22;9570;50.854;13.778;2024-01-15T09:14:06;0.70;99.90
18876;DHT22;9570;50.854;13.778;2024-01-15T09:16:31;0.60;99.90
18876;DHT22;9570;50.854;13.778;2024-01-15T09:18:57;0.70;99.90
18876;DHT22;9570;50.854;13.778;2024-01-15T09:21:23;0.60;99.90
18876;DHT22;9570;50.854;13.778;2024-01-15T09:23:49;0.50;99.90
18876;DHT22;9570;50.854;13.778;2024-01-15T09:26:15;0.50;99.90
18876;DHT22;9570;50.854;13.778;2024-01-15T09:28:40;0.50;99.90
18876;DHT22;9570;50.854;13.778;2024-01-15T09:31:06;0.50;99.90
18876;DHT22;9570;50.854;13.778;2024-01-15T09:33:32;0.80;99.90
18876;DHT22;9570;50.854;13.778;2024-01-15T09:35:57;1.00;99.90
18876;DHT22;9570;50.854;13.778;2024-01-15T09:38:22;1.40;99.90
18876;DHT22;9570;50.854;13.778;2024-01-15T09:40:49;1.80;99.90
18876;DHT22;9570;50.854;13.778;2024-01-15T09:43:15;2.00;99.90
18876;DHT22;9570;50.854;13.778;2024-01-15T09:45:42;2.50;99.90
18876;DHT22;9570;50.854;13.778;2024-01-15T09:48:08;2.80;99.90
18876;DHT22;9570;50.854;13.778;2024-01-15T09:50:34;2.50;99.90
18876;DHT22;9570;50.854;13.778;2024-01-15T09:53:00;2.30;99.90
18876;DHT22;9570;50.854;13.778;2024-01-15T09:55:26;2.70;99.90
18876;DHT22;9570;50.854;13.778;2024-01-15T09:57:52;2.90;99.90
18876;DHT22;9570;50.854;13.778;2024-01-15T10:00:20;2.80;99.90
18876;DHT22;9570;50.854;13.778;2024-01-15T10:02:46;2.70;99.90
18876;DHT22;9570;50.854;13.778;2024-01-15T10:05:11;2.90;99.90
18876;DHT22;9570;50.854;13.778;2024-01-15T10:07:37;2.80;99.90
18876;DHT22;9570;50.854;13.778;2024-01-15T10:10:03;2.50;99.90
18876;DHT22;9570;50.854;13.778;2024-01-15T10:12:29;1.90;99.90
18876;DHT22;9570;50.854;13.778;2024-01-15T10:14:56;1.50;99.90
18876;DHT22;9570;50.854;13.778;2024-01-15T10:17:21;1.80;99.90
18876;DHT22;9570;50.854;13.778;2024-01-15T10:19:47;2.20;99.90
18876;DHT22;9570;50.854;13.778;2024-01-15T10:22:14;2.20;99.90
18876;DHT22;9570;50.854;13.778;2024-01-15T10:24:41;1.90;99.90
18876;DHT22;9570;50.854;13.778;2024-01-15T10:27:07;1.90;99.90
18876;DHT22;9570;50.854;13.778;2024-01-15T10:29:33;2.10;99.90
18876;DHT22;9570;50.854;13.778;2024-01-15T10:31:59;2.20;99.90
18876;DHT22;9570;50.854;13.778;2024-01-15T10:34:25;2.00;99.90
18876;DHT22;9570;50.854;13.778;2024-01-15T10:36:50;2.00;99.90
18876;DHT22;9570;50.854;13.778;2024-01-15T10:39:21;2.00;99.90
18876;DHT22;9570;50.854;13.778;2024-01-15T10:41:46;2.00;99.90
18876;DHT22;9570;50.854;13.778;2024-01-15T10:44:12;2.00;99.90
18876;DHT22;9570;50.854;13.778;2024-01-15T10:46:37;2.00;99.90
18876;DHT22;9570;50.854;13.778;2024-01-15T10:49:04;2.20;99.90
18876;DHT22;9570;50.854;13.778;2024-01-15T10:51:29;2.20;99.90
18876;DHT22;9570;50.854;13.778;2024-01-15T10:53:56;1.70;99.90
18876;DHT22;9570;50.854;13.778;2024-01-15T10:56:22;1.60;99.90
18876;DHT22;9570;50.854;13.778;2024-01-15T10:58:49;1.90;99.90
18876;DHT22;9570;50.854;13.778;2024-01-15T11:01:15;2.00;99.90
18876;DHT22;9570;50.854;13.778;2024-01-15T11:03:42;1.80;99.90
18876;DHT22;9570;50.854;13.778;2024-01-15T11:06:18;1.80;99.90
18876;DHT22;9570;50.854;13.778;2024-01-15T11:08:46;2.00;99.90
18876;DHT22;9570;50.854;13.778;2024-01-15T11:11:13;2.40;99.90
18876;DHT22;9570;50.854;13.778;2024-01-15T11:16:06;3.00;99.90
18876;DHT22;9570;50.854;13.778;2024-01-15T11:18:36;3.30;99.90
18876;DHT22;9570;50.854;13.778;2024-01-15T11:23:48;3.50;99.90
18876;DHT22;9570;50.854;13.778;2024-01-15T11:32:02;3.30;99.90
18876;DHT22;9570;50.854;13.778;2024-01-15T11:34:58;3.10;99.90
18876;DHT22;9570;50.854;13.778;2024-01-15T11:37:26;2.70;99.90
18876;DHT22;9570;50.854;13.778;2024-01-15T11:39:54;2.60;99.90
18876;DHT22;9570;50.854;13.778;2024-01-15T11:42:21;2.50;99.90
18876;DHT22;9570;50.854;13.778;2024-01-15T11:44:47;2.60;99.90
18876;DHT22;9570;50.854;13.778;2024-01-15T11:47:12;2.40;99.90
18876;DHT22;9570;50.854;13.778;2024-01-15T11:50:02;2.40;99.90
18876;DHT22;9570;50.854;13.778;2024-01-15T11:52:35;2.20;99.90
18876;DHT22;9570;50.854;13.778;2024-01-15T11:55:12;2.20;99.90
18876;DHT22;9570;50.854;13.778;2024-01-15T12:00:07;2.30;99.90
18876;DHT22;9570;50.854;13.778;2024-01-15T12:02:34;2.40;99.90
18876;DHT22;9570;50.854;13.778;2024-01-15T12:04:59;2.40;99.90
18876;DHT22;9570;50.854;13.778;2024-01-15T12:07:25;2.40;99.90
18876;DHT22;9570;50.854;13.778;2024-01-15T12:09:50;2.30;99.90
18876;DHT22;9570;50.854;13.778;2024-01-15T12:12:35;2.30;99.90
18876;DHT22;9570;50.854;13.778;2024-01-15T12:15:03;2.40;99.90
18876;DHT22;9570;50.854;13.778;2024-01-15T12:17:29;2.20;99.90
18876;DHT22;9570;50.854;13.778;2024-01-15T12:19:54;2.20;99.90
18876;DHT22;9570;50.854;13.778;2024-01-15T12:22:21;2.20;99.90
18876;DHT22;9570;50.854;13.778;2024-01-15T12:24:46;2.30;99.90
18876;DHT22;9570;50.854;13.778;2024-01-15T12:27:12;2.20;99.90
18876;DHT22;9570;50.854;13.778;2024-01-15T12:29:38;2.20;99.90
18876;DHT22;9570;50.854;13.778;2024-01-15T12:32:05;2.20;99.90
18876;DHT22;9570;50.854;13.778;2024-01-15T12:34:30;2.20;99.90
18876;DHT22;9570;50.854;13.778;2024-01-15T12:36:57;2.10;99.90
18876;DHT22;9570;50.854;13.778;2024-01-15T12:39:24;2.20;99.90
18876;DHT22;9570;50.854;13.778;2024-01-15T12:41:50;2.30;99.90
18876;DHT22;9570;50.854;13.778;2024-01-15T12:44:15;2.20;99.90
18876;DHT22;9570;50.854;13.778;2024-01-15T12:46:41;2.30;99.90
18876;DHT22;9570;50.854;13.778;2024-01-15T12:49:08;2.20;99.90
18876;DHT22;9570;50.854;13.778;2024-01-15T12:51:34;2.10;99.90
18876;DHT22;9570;50.854;13.778;2024-01-15T12:54:00;2.00;99.90
18876;DHT22;9570;50.854;13.778;2024-01-15T12:56:25;1.80;99.90
18876;DHT22;9570;50.854;13.778;2024-01-15T12:58:51;1.90;99.90
18876;DHT22;9570;50.854;13.778;2024-01-15T13:01:16;1.70;99.90
18876;DHT22;9570;50.854;13.778;2024-01-15T13:03:42;1.80;99.90
18876;DHT22;9570;50.854;13.778;2024-01-15T13:06:07;1.70;99.90
18876;DHT22;9570;50.854;13.778;2024-01-15T13:08:33;1.50;99.90
18876;DHT22;9570;50.854;13.778;2024-01-15T13:10:58;1.60;99.90
18876;DHT22;9570;50.854;13.778;2024-01-15T13:13:24;1.40;99.90
18876;DHT22;9570;50.854;13.778;2024-01-15T13:15:49;1.50;99.90
18876;DHT22;9570;50.854;13.778;2024-01-15T13:18:15;1.20;99.90
18876;DHT22;9570;50.854;13.778;2024-01-15T13:20:41;1.30;99.90
18876;DHT22;9570;50.854;13.778;2024-01-15T13:23:06;1.40;99.90
18876;DHT22;9570;50.854;13.778;2024-01-15T13:25:32;1.10;99.90
18876;DHT22;9570;50.854;13.778;2024-01-15T13:28:00;1.10;99.90
18876;DHT22;9570;50.854;13.778;2024-01-15T13:30:27;0.90;99.90
18876;DHT22;9570;50.854;13.778;2024-01-15T13:32:53;1.00;99.90
18876;DHT22;9570;50.854;13.778;2024-01-15T13:35:19;0.90;99.90
18876;DHT22;9570;50.854;13.778;2024-01-15T13:37:44;1.00;99.90
18876;DHT22;9570;50.854;13.778;2024-01-15T13:40:10;0.90;99.90
18876;DHT22;9570;50.854;13.778;2024-01-15T13:42:41;1.10;99.90
18876;DHT22;9570;50.854;13.778;2024-01-15T13:45:07;1.10;99.90
18876;DHT22;9570;50.854;13.778;2024-01-15T13:47:33;1.10;99.90
18876;DHT22;9570;50.854;13.778;2024-01-15T13:49:59;1.20;99.90
18876;DHT22;9570;50.854;13.778;2024-01-15T13:52:24;1.10;99.90
18876;DHT22;9570;50.854;13.778;2024-01-15T13:54:50;1.10;99.90
18876;DHT22;9570;50.854;13.778;2024-01-15T13:57:19;1.10;99.90
18876;DHT22;9570;50.854;13.778;2024-01-15T13:59:44;0.90;99.90
18876;DHT22;9570;50.854;13.778;2024-01-15T14:02:10;0.70;99.90
18876;DHT22;9570;50.854;13.778;2024-01-15T14:04:35;0.70;99.90
18876;DHT22;9570;50.854;13.778;2024-01-15T14:07:01;0.70;99.90
18876;DHT22;9570;50.854;13.778;2024-01-15T14:09:26;0.80;99.90
18876;DHT22;9570;50.854;13.778;2024-01-15T14:11:52;0.50;99.90
18876;DHT22;9570;50.854;13.778;2024-01-15T14:14:17;0.60;99.90
18876;DHT22;9570;50.854;13.778;2024-01-15T14:16:43;0.60;99.90
18876;DHT22;9570;50.854;13.778;2024-01-15T14:19:08;0.60;99.90
18876;DHT22;9570;50.854;13.778;2024-01-15T14:21:35;0.50;99.90
18876;DHT22;9570;50.854;13.778;2024-01-15T14:24:00;0.60;99.90
18876;DHT22;9570;50.854;13.778;2024-01-15T14:26:26;0.50;99.90
18876;DHT22;9570;50.854;13.778;2024-01-15T14:28:51;0.50;99.90
18876;DHT22;9570;50.854;13.778;2024-01-15T14:31:17;0.50;99.90
18876;DHT22;9570;50.854;13.778;2024-01-15T14:33:43;0.50;99.90
18876;DHT22;9570;50.854;13.778;2024-01-15T14:36:08;0.40;99.90
18876;DHT22;9570;50.854;13.778;2024-01-15T14:38:34;0.40;99.90
18876;DHT22;9570;50.854;13.778;2024-01-15T14:41:00;0.30;99.90
18876;DHT22;9570;50.854;13.778;2024-01-15T14:43:26;0.30;99.90
18876;DHT22;9570;50.854;13.778;2024-01-15T14:45:51;0.40;99.90
18876;DHT22;9570;50.854;13.778;2024-01-15T14:48:17;0.40;99.90
18876;DHT22;9570;50.854;13.778;2024-01-15T14:50:42;0.20;99.90
18876;DHT22;9570;50.854;13.778;2024-01-15T14:53:07;0.30;99.90
18876;DHT22;9570;50.854;13.778;2024-01-15T14:55:33;0.20;99.90
18876;DHT22;9570;50.854;13.778;2024-01-15T14:57:59;0.30;99.90
18876;DHT22;9570;50.854;13.778;2024-01-15T15:00:24;0.40;99.90
18876;DHT22;9570;50.854;13.778;2024-01-15T15:02:50;0.30;99.90
18876;DHT22;9570;50.854;13.778;2024-01-15T15:05:15;0.30;99.90
18876;DHT22;9570;50.854;13.778;2024-01-15T15:07:42;0.10;99.90
18876;DHT22;9570;50.854;13.778;2024-01-15T15:10:08;0.00;99.90
18876;DHT22;9570;50.854;13.778;2024-01-15T15:12:35;-0.10;99.90
18876;DHT22;9570;50.854;13.778;2024-01-15T15:15:01;-0.20;99.90
18876;DHT22;9570;50.854;13.778;2024-01-15T15:17:26;0.00;99.90
18876;DHT22;9570;50.854;13.778;2024-01-15T15:19:52;0.00;99.90
18876;DHT22;9570;50.854;13.778;2024-01-15T15:22:19;0.10;99.90
18876;DHT22;9570;50.854;13.778;2024-01-15T15:24:45;0.20;99.90
18876;DHT22;9570;50.854;13.778;2024-01-15T15:27:11;0.30;99.90
18876;DHT22;9570;50.854;13.778;2024-01-15T15:29:36;0.30;99.90
18876;DHT22;9570;50.854;13.778;2024-01-15T15:32:02;0.40;99.90
18876;DHT22;9570;50.854;13.778;2024-01-15T15:34:28;0.40;99.90
18876;DHT22;9570;50.854;13.778;2024-01-15T15:36:53;0.40;99.90
18876;DHT22;9570;50.854;13.778;2024-01-15T15:39:19;0.40;99.90
18876;DHT22;9570;50.854;13.778;2024-01-15T15:41:44;0.30;99.90
18876;DHT22;9570;50.854;13.778;2024-01-15T15:44:10;0.30;99.90
18876;DHT22;9570;50.854;13.778;2024-01-15T15:46:37;0.20;99.90
18876;DHT22;9570;50.854;13.778;2024-01-15T15:49:03;0.30;99.90
18876;DHT22;9570;50.854;13.778;2024-01-15T15:51:32;0.10;99.90